Time;durP1;ratioP1;P1;durP2;ratioP2;P2;SDS_P1;SDS_P2;PMS_P1;PMS_P2;Temp;Humidity;BMP_temperature;BMP_pressure;BME280_temperature;BME280_humidity;BME280_pressure;Samples;Min_cycle;Max_cycle;Signal;HPM_P1;HPM_P2
2023/07/20 00:00:22;;;;;;;3.92;2.90;;;;;;;18.93;45.59;95545.53;5009015;28;20180;-82
2023/07/20 00:02:50;;;;;;;4.53;2.30;;;;;;;18.96;45.38;95545.94;4987944;28;20216;-83
2023/07/20 00:05:18;;;;;;;2.08;1.83;;;;;;;18.84;46.02;95550.19;5012428;28;20190;-84
2023/07/20 00:07:43;;;;;;;4.68;2.28;;;;;;;18.80;46.23;95550.75;5017589;28;20204;-84
2023/07/20 00:10:09;;;;;;;4.70;2.47;;;;;;;18.70;46.26;95556.41;5032496;28;20203;-83
2023/07/20 00:12:34;;;;;;;4.43;2.47;;;;;;;18.76;46.49;95552.19;4986465;28;20309;-84
2023/07/20 00:15:00;;;;;;;7.07;2.80;;;;;;;18.66;46.95;95549.94;4968797;28;20200;-83
2023/07/20 00:17:25;;;;;;;4.13;2.35;;;;;;;18.52;47.05;95551.66;4992237;28;20196;-83
2023/07/20 00:19:50;;;;;;;2.60;2.20;;;;;;;18.55;47.50;95550.44;4971571;28;20193;-84
2023/07/20 00:22:16;;;;;;;3.10;2.65;;;;;;;18.52;47.39;95553.47;4969304;28;20219;-83
2023/07/20 00:24:41;;;;;;;5.90;2.72;;;;;;;18.54;47.74;95554.88;4970209;28;20188;-84
2023/07/20 00:27:06;;;;;;;3.28;2.45;;;;;;;18.50;47.80;95555.50;5000552;28;20215;-85
2023/07/20 00:29:32;;;;;;;4.90;2.67;;;;;;;18.46;48.16;95543.72;5017219;28;20287;-84
2023/07/20 00:31:58;;;;;;;6.00;2.45;;;;;;;18.35;47.73;95559.06;4997744;28;20212;-82
2023/07/20 00:34:23;;;;;;;3.97;2.65;;;;;;;18.36;48.08;95554.63;5018630;28;20261;-82
2023/07/20 00:36:49;;;;;;;4.38;2.78;;;;;;;18.27;48.33;95551.34;4994675;28;20199;-82
2023/07/20 00:39:14;;;;;;;2.75;2.35;;;;;;;18.22;48.49;95559.00;4970268;28;20211;-83
2023/07/20 00:41:39;;;;;;;5.80;2.75;;;;;;;18.23;48.64;95560.63;4973067;28;20250;-82
2023/07/20 00:44:05;;;;;;;4.75;2.50;;;;;;;18.17;48.89;95563.22;4996602;28;20631;-83
2023/07/20 00:46:32;;;;;;;4.10;2.42;;;;;;;18.11;49.15;95562.19;4981646;28;20187;-83
2023/07/20 00:48:58;;;;;;;5.35;2.25;;;;;;;18.04;49.35;95556.09;4991291;28;20184;-83
2023/07/20 00:51:23;;;;;;;2.95;2.50;;;;;;;18.06;49.31;95561.94;4967122;28;20262;-83
2023/07/20 00:53:49;;;;;;;4.10;2.40;;;;;;;17.95;49.90;95562.50;5010614;28;20337;-84
2023/07/20 00:56:15;;;;;;;4.13;2.15;;;;;;;17.99;49.50;95558.47;4998459;28;20271;-83
2023/07/20 00:58:40;;;;;;;7.82;2.78;;;;;;;18.09;49.51;95569.44;5015659;28;20211;-83
2023/07/20 01:01:06;;;;;;;3.58;2.53;;;;;;;18.09;49.50;95564.19;5014338;28;20642;-83
2023/07/20 01:03:31;;;;;;;3.95;2.58;;;;;;;17.94;50.03;95560.88;5016206;28;20203;-84
2023/07/20 01:06:09;;;;;;;3.40;2.40;;;;;;;17.75;50.41;95559.72;5019133;28;20184;-84
2023/07/20 01:08:45;;;;;;;3.78;2.80;;;;;;;17.90;50.46;95559.63;5001039;28;20191;-83
2023/07/20 01:11:21;;;;;;;4.40;2.40;;;;;;;17.78;50.14;95565.41;4999248;28;20223;-83
2023/07/20 01:13:46;;;;;;;4.28;2.42;;;;;;;17.77;50.24;95566.44;5016014;28;20188;-84
2023/07/20 01:16:12;;;;;;;3.28;2.63;;;;;;;17.67;50.67;95565.91;4984324;28;20205;-84
2023/07/20 01:18:38;;;;;;;2.80;2.30;;;;;;;17.76;50.22;95564.81;4981619;28;20188;-83
2023/07/20 01:21:06;;;;;;;3.05;2.20;;;;;;;17.72;50.51;95563.53;5014001;28;20191;-84
2023/07/20 01:23:50;;;;;;;2.95;2.20;;;;;;;17.67;50.93;95565.91;4998827;28;20230;-84
2023/07/20 01:27:01;;;;;;;5.53;2.70;;;;;;;17.64;51.17;95560.22;5015486;28;20198;-83
2023/07/20 01:30:31;;;;;;;4.50;2.47;;;;;;;17.55;51.34;95552.47;4997876;28;20180;-84
2023/07/20 01:32:57;;;;;;;5.78;2.45;;;;;;;17.53;51.26;95551.88;4948116;28;20249;-84
2023/07/20 01:35:26;;;;;;;6.90;2.20;;;;;;;17.65;51.11;95560.03;4981804;28;20208;-84
2023/07/20 01:37:52;;;;;;;2.47;2.20;;;;;;;17.59;50.86;95558.19;4978478;28;20631;-84
2023/07/20 01:40:17;;;;;;;4.57;2.38;;;;;;;17.41;51.77;95560.47;4996900;28;20187;-84
2023/07/20 01:42:46;;;;;;;4.18;2.20;;;;;;;17.41;51.71;95555.22;4967361;28;20223;-84
2023/07/20 01:45:11;;;;;;;5.20;2.30;;;;;;;17.46;51.88;95558.88;4974905;28;20191;-84
2023/07/20 01:47:36;;;;;;;3.47;2.38;;;;;;;17.45;51.88;95546.75;4976555;28;20555;-84
2023/07/20 01:50:02;;;;;;;4.47;2.40;;;;;;;17.26;52.43;95550.84;4979681;28;20561;-84
2023/07/20 01:52:27;;;;;;;4.15;2.33;;;;;;;17.27;52.21;95547.22;5015361;28;20203;-84
2023/07/20 01:54:52;;;;;;;4.90;2.30;;;;;;;17.27;52.53;95541.97;4967195;28;20189;-84
2023/07/20 01:57:18;;;;;;;2.47;2.08;;;;;;;17.21;52.73;95547.97;4977144;28;20179;-84
2023/07/20 01:59:43;;;;;;;4.57;2.10;;;;;;;17.18;52.89;95547.53;4986241;28;20190;-84
2023/07/20 02:02:08;;;;;;;5.78;2.33;;;;;;;17.12;53.18;95541.22;5018243;28;20302;-84
2023/07/20 02:04:34;;;;;;;5.68;2.50;;;;;;;17.09;53.20;95548.66;4998825;28;20194;-84
2023/07/20 02:06:59;;;;;;;3.50;2.20;;;;;;;16.97;53.76;95549.16;4980248;28;20204;-82
2023/07/20 02:09:25;;;;;;;3.72;2.47;;;;;;;16.89;53.87;95553.72;4978677;28;20642;-84
2023/07/20 02:11:50;;;;;;;5.63;2.20;;;;;;;16.97;54.05;95543.91;4981625;28;20223;-84
2023/07/20 02:14:16;;;;;;;6.22;2.25;;;;;;;16.95;54.37;95542.47;4998965;28;20184;-84
2023/07/20 02:16:41;;;;;;;3.15;2.08;;;;;;;16.75;54.76;95541.47;5016023;28;20227;-84
2023/07/20 02:19:06;;;;;;;2.55;2.22;;;;;;;16.78;54.75;95543.69;5014112;28;20238;-84
2023/07/20 02:21:32;;;;;;;3.20;2.30;;;;;;;16.79;54.73;95546.16;4996151;28;20226;-84
2023/07/20 02:23:57;;;;;;;3.78;2.28;;;;;;;16.81;55.05;95538.09;4997870;28;20716;-83
2023/07/20 02:26:23;;;;;;;5.20;2.42;;;;;;;16.73;55.41;95538.22;5013072;28;20208;-84
2023/07/20 02:28:48;;;;;;;5.85;2.08;;;;;;;16.74;55.13;95537.22;4991620;28;20192;-84
2023/07/20 02:31:13;;;;;;;3.72;3.05;;;;;;;16.73;55.43;95539.03;5013854;28;20273;-84
2023/07/20 02:33:39;;;;;;;3.63;2.33;;;;;;;16.69;55.51;95540.38;5012658;28;20610;-84
2023/07/20 02:36:04;;;;;;;3.45;2.22;;;;;;;16.70;55.53;95548.09;5014115;28;20195;-83
2023/07/20 02:38:29;;;;;;;3.63;2.28;;;;;;;16.60;56.00;95542.28;4988427;28;20192;-84
2023/07/20 02:40:55;;;;;;;4.22;2.03;;;;;;;16.43;56.65;95557.44;4992294;28;20683;-84
2023/07/20 02:43:20;;;;;;;3.20;2.20;;;;;;;16.46;56.51;95556.25;4972028;28;20204;-84
2023/07/20 02:45:45;;;;;;;5.03;1.98;;;;;;;16.51;56.42;95550.44;4973452;28;20208;-84
2023/07/20 02:48:11;;;;;;;4.00;2.72;;;;;;;16.18;57.23;95569.19;4996710;28;20180;-83
2023/07/20 02:50:36;;;;;;;4.40;2.22;;;;;;;16.33;57.53;95558.69;5015102;28;20511;-84
2023/07/20 02:53:02;;;;;;;3.10;2.38;;;;;;;16.41;57.23;95564.63;4981377;28;20587;-82
2023/07/20 02:55:27;;;;;;;3.92;2.47;;;;;;;16.16;58.02;95552.81;5012811;28;20269;-84
2023/07/20 02:57:52;;;;;;;5.30;2.60;;;;;;;16.21;58.25;95563.59;5005691;28;20196;-83
2023/07/20 03:00:19;;;;;;;3.72;2.70;;;;;;;16.11;58.60;95560.44;4973864;28;20191;-83
2023/07/20 03:02:48;;;;;;;8.30;2.30;;;;;;;16.13;58.76;95559.25;4981960;28;20230;-83
2023/07/20 03:05:14;;;;;;;3.33;2.40;;;;;;;16.31;58.04;95558.06;4997082;28;20612;-84
2023/07/20 03:07:39;;;;;;;2.67;2.38;;;;;;;16.28;58.29;95563.66;4965864;28;20251;-84
2023/07/20 03:10:09;;;;;;;3.70;1.73;;;;;;;16.28;58.22;95563.66;4969882;28;20259;-84
2023/07/20 03:12:35;;;;;;;4.18;2.28;;;;;;;16.22;58.33;95552.09;4998324;28;20235;-83
2023/07/20 03:15:01;;;;;;;3.08;2.13;;;;;;;16.19;58.74;95552.47;5012003;28;20793;-83
2023/07/20 03:17:26;;;;;;;4.70;2.40;;;;;;;16.18;58.85;95552.66;4996371;28;20188;-84
2023/07/20 03:19:52;;;;;;;2.83;2.33;;;;;;;16.11;58.79;95548.16;4996505;28;20203;-84
2023/07/20 03:22:18;;;;;;;4.22;2.00;;;;;;;16.09;58.49;95547.53;4969982;28;20210;-83
2023/07/20 03:24:43;;;;;;;5.50;2.67;;;;;;;16.11;59.01;95549.94;4973781;28;20196;-84
2023/07/20 03:27:08;;;;;;;5.05;2.70;;;;;;;16.07;59.17;95557.34;4980206;28;20656;-84
2023/07/20 03:29:34;;;;;;;2.92;2.08;;;;;;;16.10;59.22;95557.00;5013688;28;20214;-84
2023/07/20 03:31:59;;;;;;;3.50;2.50;;;;;;;16.13;59.19;95561.06;4977359;28;20706;-84
2023/07/20 03:34:25;;;;;;;4.22;2.55;;;;;;;16.09;59.50;95565.03;4981908;28;20199;-84
2023/07/20 03:36:50;;;;;;;3.13;2.28;;;;;;;15.94;60.18;95565.03;4994436;28;20212;-83
2023/07/20 03:39:16;;;;;;;3.90;2.38;;;;;;;15.96;59.98;95565.66;4969226;28;20216;-83
2023/07/20 03:41:43;;;;;;;3.65;2.58;;;;;;;15.90;60.14;95571.59;4996436;28;20205;-83
2023/07/20 03:44:08;;;;;;;3.97;2.50;;;;;;;15.94;60.29;95572.06;4995016;28;20228;-84
2023/07/20 03:46:33;;;;;;;3.58;2.45;;;;;;;15.95;60.23;95569.28;5001473;28;20207;-84
2023/07/20 03:48:59;;;;;;;4.50;2.17;;;;;;;16.03;59.65;95566.56;5000870;28;20200;-83
2023/07/20 03:51:24;;;;;;;4.43;2.63;;;;;;;16.04;59.94;95562.94;4998489;28;20231;-84
2023/07/20 03:53:50;;;;;;;4.78;2.60;;;;;;;16.02;60.11;95564.13;4973767;28;20192;-84
2023/07/20 03:56:16;;;;;;;4.68;2.65;;;;;;;15.95;60.31;95569.28;4988333;28;20196;-83
2023/07/20 03:58:41;;;;;;;3.50;2.60;;;;;;;16.14;59.69;95571.34;4999644;28;20204;-83
2023/07/20 04:01:07;;;;;;;3.38;2.33;;;;;;;16.17;59.54;95575.44;5016021;28;20195;-84
2023/07/20 04:03:32;;;;;;;2.70;2.30;;;;;;;16.20;59.67;95577.69;5017320;28;20212;-83
2023/07/20 04:05:57;;;;;;;4.13;2.67;;;;;;;16.25;59.48;95572.69;4985719;28;20215;-84
2023/07/20 04:08:24;;;;;;;4.25;2.70;;;;;;;16.54;58.58;95571.88;4983314;28;20191;-84
2023/07/20 04:10:49;;;;;;;2.75;2.35;;;;;;;17.06;56.96;95565.59;4998158;28;20646;-84
2023/07/20 04:13:15;;;;;;;3.40;2.33;;;;;;;17.49;55.64;95578.69;4996812;28;20198;-84
2023/07/20 04:15:40;;;;;;;3.05;2.40;;;;;;;18.20;53.05;95582.06;4972843;28;20196;-84
2023/07/20 04:18:05;;;;;;;4.00;2.42;;;;;;;18.15;53.40;95581.81;4970997;28;20203;-83
2023/07/20 04:20:31;;;;;;;3.67;2.25;;;;;;;18.00;53.20;95584.53;4968105;28;20229;-84
2023/07/20 04:22:56;;;;;;;3.92;2.60;;;;;;;17.90;53.86;95591.97;4971103;28;20258;-84
2023/07/20 04:25:24;;;;;;;3.63;2.33;;;;;;;17.70;54.41;95583.13;4990607;28;20195;-84
2023/07/20 04:27:51;;;;;;;3.92;2.28;;;;;;;17.42;55.64;95585.72;4981019;28;20179;-84
2023/07/20 04:30:20;;;;;;;2.58;1.90;;;;;;;17.39;55.59;95591.31;5013866;28;20198;-82
2023/07/20 04:32:46;;;;;;;2.30;2.10;;;;;;;17.10;56.74;95579.94;4997323;28;20276;-84
2023/07/20 04:35:37;;;;;;;2.65;2.30;;;;;;;17.11;57.04;95586.81;4995801;28;20659;-84
2023/07/20 04:38:02;;;;;;;4.15;2.45;;;;;;;17.14;57.09;95581.22;4985337;28;20286;-84
2023/07/20 04:40:28;;;;;;;3.47;2.22;;;;;;;17.27;56.34;95578.69;5010392;28;20270;-84
2023/07/20 04:42:53;;;;;;;5.28;2.45;;;;;;;17.40;56.54;95579.81;5013743;28;20385;-84
2023/07/20 04:45:18;;;;;;;4.07;2.72;;;;;;;17.75;55.53;95585.97;5013358;28;20184;-84
2023/07/20 04:47:44;;;;;;;2.92;2.20;;;;;;;18.95;51.75;95586.44;4975508;28;20552;-84
2023/07/20 04:50:09;;;;;;;3.25;2.38;;;;;;;19.62;49.37;95586.56;4992627;28;20184;-85
2023/07/20 04:52:35;;;;;;;4.75;2.60;;;;;;;20.20;47.91;95589.34;4993035;28;20794;-85
2023/07/20 04:55:00;;;;;;;3.70;1.98;;;;;;;19.60;49.55;95584.09;5007219;28;20547;-85
2023/07/20 04:57:25;;;;;;;2.78;2.35;;;;;;;19.15;50.51;95583.03;4969573;28;20193;-85
2023/07/20 04:59:51;;;;;;;5.35;2.85;;;;;;;19.27;50.73;95583.28;4991646;28;20238;-85
2023/07/20 05:02:17;;;;;;;5.30;2.78;;;;;;;19.89;49.71;95587.38;4976255;28;20219;-86
2023/07/20 05:04:42;;;;;;;2.78;2.10;;;;;;;21.51;45.36;95584.50;4981889;28;20184;-86
2023/07/20 05:07:07;;;;;;;3.28;2.90;;;;;;;22.87;42.39;95589.72;4980145;28;20192;-84
2023/07/20 05:09:33;;;;;;;3.85;2.13;;;;;;;24.28;39.20;95582.88;5013182;28;20188;-85
2023/07/20 05:11:58;;;;;;;3.05;1.98;;;;;;;25.42;36.19;95592.84;5017733;28;20231;-84
2023/07/20 05:14:23;;;;;;;5.65;1.85;;;;;;;25.76;35.96;95596.41;5012501;28;20188;-84
2023/07/20 05:16:48;;;;;;;4.50;1.88;;;;;;;25.88;36.13;95596.31;4992079;28;20183;-84
2023/07/20 05:19:14;;;;;;;2.45;2.13;;;;;;;26.70;34.83;95593.00;4995370;28;20211;-83
2023/07/20 05:21:39;;;;;;;2.90;1.85;;;;;;;24.89;37.37;95583.34;4997564;28;20686;-85
2023/07/20 05:24:05;;;;;;;4.05;2.00;;;;;;;24.35;38.98;95596.06;5013625;28;20458;-86
2023/07/20 05:26:30;;;;;;;5.18;1.90;;;;;;;23.68;39.99;95588.41;4992424;28;20239;-83
2023/07/20 05:28:55;;;;;;;7.80;1.95;;;;;;;22.99;42.32;95595.06;4975490;28;20189;-83
2023/07/20 05:31:21;;;;;;;4.38;2.03;;;;;;;23.11;42.15;95593.28;4968457;28;20212;-85
2023/07/20 05:33:46;;;;;;;4.90;2.20;;;;;;;23.48;41.00;95595.00;4995565;28;20239;-85
2023/07/20 05:36:27;;;;;;;6.13;2.28;;;;;;;24.53;39.40;95595.09;4996610;28;20238;-84
2023/07/20 05:38:52;;;;;;;4.88;2.95;;;;;;;24.38;39.06;95590.25;4996061;28;20195;-84
2023/07/20 05:41:18;;;;;;;4.20;2.10;;;;;;;24.16;39.78;95590.03;5011694;28;20208;-85
2023/07/20 05:43:43;;;;;;;9.05;2.08;;;;;;;25.77;36.45;95583.91;4976825;28;20565;-85
2023/07/20 05:46:09;;;;;;;4.22;1.75;;;;;;;26.36;35.14;95590.38;4980723;28;20559;-85
2023/07/20 05:48:35;;;;;;;3.40;1.83;;;;;;;27.44;32.98;95582.63;4995570;28;20195;-82
2023/07/20 05:51:00;;;;;;;3.63;1.90;;;;;;;26.38;34.56;95585.63;4973817;28;20192;-82
2023/07/20 05:53:25;;;;;;;3.65;2.10;;;;;;;26.52;34.61;95594.09;4992351;28;20226;-83
2023/07/20 05:55:54;;;;;;;5.88;2.20;;;;;;;27.48;33.55;95586.41;4998496;28;20183;-82
2023/07/20 05:58:20;;;;;;;6.35;2.03;;;;;;;27.35;33.04;95589.47;4998027;28;20214;-83
2023/07/20 06:00:48;;;;;;;2.95;1.85;;;;;;;27.54;32.65;95600.56;4974921;28;20601;-83
2023/07/20 06:03:13;;;;;;;3.35;1.80;;;;;;;28.09;31.78;95591.44;5004510;28;20277;-83
2023/07/20 06:05:38;;;;;;;3.33;2.00;;;;;;;27.66;32.22;95598.59;4970030;28;20217;-83
2023/07/20 06:08:04;;;;;;;9.82;2.15;;;;;;;28.72;30.71;95603.09;4966184;28;20691;-82
2023/07/20 06:10:29;;;;;;;5.30;1.90;;;;;;;29.08;30.43;95605.94;4992444;28;20219;-83
2023/07/20 06:12:55;;;;;;;4.95;2.30;;;;;;;29.77;29.06;95605.53;4990069;28;20207;-83
2023/07/20 06:15:28;;;;;;;6.65;2.17;;;;;;;29.64;29.51;95598.84;4989431;28;20194;-84
2023/07/20 06:17:55;;;;;;;3.50;2.08;;;;;;;28.33;30.73;95607.94;4976549;28;20757;-83
2023/07/20 06:20:20;;;;;;;8.23;2.47;;;;;;;28.52;31.35;95600.28;5007254;28;20192;-81
2023/07/20 06:22:45;;;;;;;4.85;2.17;;;;;;;26.61;34.13;95607.78;4972122;28;20207;-82
2023/07/20 06:25:11;;;;;;;8.25;2.47;;;;;;;26.24;34.53;95601.13;4976379;28;20196;-82
2023/07/20 06:27:36;;;;;;;7.35;2.97;;;;;;;27.92;32.49;95603.09;4976270;28;20180;-82
2023/07/20 06:30:01;;;;;;;3.33;2.25;;;;;;;28.22;32.00;95602.50;4993224;28;20571;-82
2023/07/20 06:32:26;;;;;;;4.90;2.20;;;;;;;29.18;30.69;95600.59;4972465;28;20231;-82
2023/07/20 06:34:52;;;;;;;7.80;2.60;;;;;;;28.92;30.36;95597.03;4991471;28;20195;-81
2023/07/20 06:37:17;;;;;;;6.10;2.17;;;;;;;28.88;30.43;95601.25;4983304;28;20656;-83
2023/07/20 06:39:42;;;;;;;4.03;2.22;;;;;;;29.05;30.35;95596.53;4993456;28;20184;-83
2023/07/20 06:42:08;;;;;;;5.70;2.50;;;;;;;29.30;30.21;95593.94;4963069;28;20209;-82
2023/07/20 06:44:33;;;;;;;7.97;2.50;;;;;;;29.34;30.06;95596.91;4992015;28;20192;-82
2023/07/20 06:46:58;;;;;;;3.63;2.20;;;;;;;29.59;29.17;95602.31;4973200;28;20192;-83
2023/07/20 06:49:25;;;;;;;4.47;2.47;;;;;;;29.77;28.92;95602.84;4989473;28;20913;-83
2023/07/20 06:51:51;;;;;;;5.03;2.50;;;;;;;30.13;28.85;95599.16;4971148;28;20322;-82
2023/07/20 06:54:16;;;;;;;11.10;2.60;;;;;;;29.78;29.70;95599.94;4986849;28;20211;-82
2023/07/20 06:56:41;;;;;;;7.72;2.53;;;;;;;29.77;29.46;95597.50;4975587;28;20271;-82
2023/07/20 06:59:07;;;;;;;2.80;2.22;;;;;;;29.82;29.04;95601.00;4994262;28;20605;-80
2023/07/20 07:01:32;;;;;;;3.50;1.77;;;;;;;29.47;29.87;95588.34;5005670;28;20203;-81
2023/07/20 07:03:57;;;;;;;9.20;2.40;;;;;;;27.92;32.12;95587.09;4990081;28;20208;-81
2023/07/20 07:06:23;;;;;;;3.95;2.40;;;;;;;27.93;32.29;95587.88;4996758;28;20189;-85
2023/07/20 07:08:48;;;;;;;4.43;2.22;;;;;;;28.47;31.70;95593.06;4994446;28;20638;-83
2023/07/20 07:11:14;;;;;;;5.13;1.98;;;;;;;28.50;31.17;95590.66;4979261;28;20203;-83
2023/07/20 07:13:39;;;;;;;15.73;3.10;;;;;;;26.88;34.39;95598.00;4992609;28;20651;-84
2023/07/20 07:16:04;;;;;;;7.05;2.60;;;;;;;26.64;34.29;95597.44;4980488;28;20192;-84
2023/07/20 07:18:30;;;;;;;6.85;2.40;;;;;;;27.06;33.84;95597.72;4979399;28;20177;-83
2023/07/20 07:24:49;;;;;;;7.93;2.33;;;;;;;29.77;29.77;95597.50;4962294;29;20220;-83
2023/07/20 07:27:16;;;;;;;5.00;2.08;;;;;;;28.94;31.22;95593.03;4946788;29;20344;-82
2023/07/20 07:29:44;;;;;;;6.68;2.22;;;;;;;29.11;31.03;95606.19;4950902;28;20197;-84
2023/07/20 07:32:10;;;;;;;4.15;2.40;;;;;;;27.34;32.67;95598.53;4952412;28;20213;-84
2023/07/20 07:38:52;;;;;;;7.78;2.60;;;;;;;24.49;37.27;95584.16;4908809;29;20195;-82
2023/07/20 07:46:33;;;;;;;;;;;;;;;;;;;;;
2023/07/20 07:49:24;;;;;;;9.40;2.63;;;;;;;24.98;37.21;95589.91;4757108;30;20311;-83
2023/07/20 07:51:50;;;;;;;7.53;2.65;;;;;;;25.99;35.60;95592.78;4717676;30;20658;-84
2023/07/20 07:54:15;;;;;;;5.43;2.47;;;;;;;27.33;33.53;95595.06;4732890;30;20214;-85
2023/07/20 07:56:40;;;;;;;4.80;2.53;;;;;;;25.97;34.76;95589.53;4734331;30;20214;-84
2023/07/20 07:59:06;;;;;;;9.68;2.80;;;;;;;25.19;36.20;95591.13;4696529;30;20237;-84
2023/07/20 08:01:32;;;;;;;5.53;2.75;;;;;;;25.16;37.23;95594.25;4741626;30;20228;-81
2023/07/20 08:03:57;;;;;;;6.82;2.22;;;;;;;24.28;38.34;95590.03;4736549;30;20232;-86
2023/07/20 08:06:23;;;;;;;7.05;2.58;;;;;;;23.88;39.29;95590.72;4736877;30;20802;-85
2023/07/20 08:08:49;;;;;;;7.68;2.38;;;;;;;23.64;40.39;95597.03;4722812;30;20213;-80
2023/07/20 08:11:14;;;;;;;4.18;2.20;;;;;;;23.39;41.00;95595.31;4731132;30;20235;-80
2023/07/20 08:13:39;;;;;;;10.60;2.58;;;;;;;22.79;40.93;95590.00;4738768;30;20206;-80
2023/07/20 08:16:05;;;;;;;3.05;2.20;;;;;;;23.52;40.10;95585.56;4766272;30;20564;-80
2023/07/20 08:18:31;;;;;;;5.30;2.33;;;;;;;24.62;38.42;95593.69;4822634;29;20583;-80
2023/07/20 08:20:56;;;;;;;4.68;2.33;;;;;;;24.17;39.55;95589.00;4874399;29;20200;-84
2023/07/20 08:33:34;;;;;;;6.43;2.50;;;;;;;24.22;40.53;95590.97;4910516;29;20242;-85
2023/07/20 08:36:27;;;;;;;6.03;2.42;;;;;;;25.15;36.86;95600.63;4926254;29;20623;-85
2023/07/20 08:38:52;;;;;;;4.55;2.15;;;;;;;24.79;37.64;95596.44;4924436;29;20712;-83
2023/07/20 08:41:18;;;;;;;4.53;2.40;;;;;;;24.76;38.51;95599.56;4908555;29;20217;-84
2023/07/20 08:43:46;;;;;;;3.15;2.25;;;;;;;24.62;38.67;95598.19;4920904;29;20258;-82
2023/07/20 08:46:13;;;;;;;5.25;2.30;;;;;;;24.64;38.47;95601.44;4931156;29;20233;-82
2023/07/20 08:48:40;;;;;;;6.95;2.40;;;;;;;24.39;38.63;95602.53;4901941;29;20193;-82
2023/07/20 08:51:05;;;;;;;5.57;2.20;;;;;;;24.48;38.46;95597.66;4914770;29;20205;-82
2023/07/20 08:53:32;;;;;;;3.03;2.20;;;;;;;24.68;35.57;95602.59;4919132;29;20230;-81
2023/07/20 08:55:58;;;;;;;5.70;1.70;;;;;;;24.30;36.53;95595.94;4928801;29;20230;-83
2023/07/20 08:58:25;;;;;;;6.32;2.05;;;;;;;23.98;38.07;95593.63;4917872;29;20777;-83
2023/07/20 09:00:51;;;;;;;1.90;1.60;;;;;;;24.30;35.62;95591.41;4916055;29;20206;-83
2023/07/20 09:03:16;;;;;;;1.92;1.52;;;;;;;24.18;35.04;95587.16;4920873;29;20221;-82
2023/07/20 09:05:42;;;;;;;3.60;1.77;;;;;;;24.20;36.13;95593.03;4934963;28;20385;-82
2023/07/20 09:08:09;;;;;;;3.53;1.88;;;;;;;24.25;35.90;95588.66;4976438;28;20254;-82
2023/07/20 09:10:35;;;;;;;5.13;1.70;;;;;;;24.63;35.30;95591.84;4989202;28;20216;-83
2023/07/20 09:13:00;;;;;;;6.10;1.80;;;;;;;25.05;34.58;95587.13;4955671;28;20208;-82
2023/07/20 09:15:26;;;;;;;6.03;1.90;;;;;;;24.91;33.65;95591.88;4956720;28;20188;-81
2023/07/20 09:17:53;;;;;;;2.22;1.40;;;;;;;24.77;33.49;95595.88;4986921;28;20231;-82
2023/07/20 09:20:19;;;;;;;3.08;1.45;;;;;;;24.95;33.08;95593.03;4971218;28;20184;-82
2023/07/20 09:22:44;;;;;;;3.42;1.40;;;;;;;24.98;33.20;95587.25;4985764;28;20625;-83
2023/07/20 09:25:14;;;;;;;2.97;1.55;;;;;;;25.13;33.95;95586.75;4955260;28;20299;-79
2023/07/20 09:27:45;;;;;;;4.53;1.42;;;;;;;25.04;32.16;95594.31;4987759;28;20187;-85
2023/07/20 09:30:14;;;;;;;4.88;2.05;;;;;;;24.99;32.79;95583.53;4969265;28;20188;-83
2023/07/20 09:32:42;;;;;;;1.83;1.40;;;;;;;24.97;31.93;95592.78;4972009;28;20204;-82
2023/07/20 09:35:14;;;;;;;2.17;1.50;;;;;;;24.27;32.42;95581.25;4948646;28;20180;-82
2023/07/20 09:37:39;;;;;;;4.50;1.67;;;;;;;24.88;32.46;95587.06;4957687;28;20199;-82
2023/07/20 09:40:07;;;;;;;3.75;1.90;;;;;;;24.45;32.54;95588.31;4987533;28;20188;-83
2023/07/20 09:42:32;;;;;;;4.25;1.50;;;;;;;24.67;31.28;95587.69;4971960;28;20244;-83
2023/07/20 09:44:57;;;;;;;2.53;1.17;;;;;;;25.17;30.75;95595.88;4975160;28;20276;-82
2023/07/20 09:47:23;;;;;;;3.75;1.48;;;;;;;25.06;27.57;95594.88;4965798;28;20281;-80
2023/07/20 09:49:49;;;;;;;3.55;1.30;;;;;;;25.31;29.01;95585.75;4945357;28;20192;-82
2023/07/20 09:52:14;;;;;;;3.03;1.20;;;;;;;25.35;29.18;95577.06;4978200;28;20207;-83
2023/07/20 09:54:40;;;;;;;1.60;1.35;;;;;;;25.22;29.82;95581.88;4974921;28;20181;-82
2023/07/20 09:57:09;;;;;;;3.53;1.63;;;;;;;25.19;31.00;95582.38;4952658;28;20184;-83
2023/07/20 09:59:34;;;;;;;3.65;1.80;;;;;;;25.12;31.28;95588.63;4979658;28;20176;-82
2023/07/20 10:02:02;;;;;;;4.10;1.70;;;;;;;25.65;30.37;95592.75;4992807;28;20240;-83
2023/07/20 10:04:28;;;;;;;3.83;1.50;;;;;;;25.36;30.94;95584.00;4982884;28;20227;-83
2023/07/20 10:06:55;;;;;;;3.63;1.50;;;;;;;24.54;29.69;95589.56;5006188;28;20176;-83
2023/07/20 10:09:22;;;;;;;1.48;1.38;;;;;;;24.94;30.52;95591.44;4981896;28;20187;-83
2023/07/20 10:11:50;;;;;;;2.40;1.48;;;;;;;25.40;30.19;95584.31;4978909;28;20204;-83
2023/07/20 10:14:20;;;;;;;2.08;1.70;;;;;;;25.34;29.49;95587.94;4981732;28;20215;-84
2023/07/20 10:16:55;;;;;;;1.70;1.50;;;;;;;25.31;30.76;95583.91;5003157;28;20192;-81
2023/07/20 10:19:28;;;;;;;4.07;1.70;;;;;;;25.68;30.39;95580.81;4977228;28;20192;-81
2023/07/20 10:22:01;;;;;;;3.60;1.80;;;;;;;25.51;30.18;95572.81;4977903;28;20208;-82
2023/07/20 10:24:27;;;;;;;1.73;1.40;;;;;;;25.29;30.60;95577.22;4979666;28;20235;-83
2023/07/20 10:26:54;;;;;;;2.55;1.55;;;;;;;24.78;31.41;95584.19;4999575;28;20202;-82
2023/07/20 10:29:20;;;;;;;5.97;1.60;;;;;;;24.67;31.41;95571.78;4992971;28;20203;-81
2023/07/20 10:31:46;;;;;;;6.00;1.33;;;;;;;24.91;29.89;95569.81;4979358;28;20212;-80
2023/07/20 10:34:12;;;;;;;2.88;1.13;;;;;;;24.95;29.93;95570.97;4997698;28;20184;-81
2023/07/20 10:36:45;;;;;;;3.45;1.52;;;;;;;25.06;28.91;95570.16;4976412;28;20184;-84
2023/07/20 10:39:23;;;;;;;2.42;1.27;;;;;;;25.20;29.35;95568.84;4975365;28;20211;-85
2023/07/20 10:41:49;;;;;;;1.58;1.20;;;;;;;24.53;29.46;95572.03;4985098;28;20682;-83
2023/07/20 10:44:19;;;;;;;2.53;1.52;;;;;;;24.24;31.10;95559.69;4960240;28;20223;-85
2023/07/20 10:46:46;;;;;;;1.55;1.23;;;;;;;24.62;30.46;95558.38;4984456;28;20187;-83
2023/07/20 10:49:12;;;;;;;1.60;1.42;;;;;;;24.30;30.20;95559.59;4967559;28;20212;-83
2023/07/20 10:51:46;;;;;;;1.63;1.27;;;;;;;24.96;29.73;95556.66;4960865;28;20210;-85
2023/07/20 10:54:17;;;;;;;3.10;1.30;;;;;;;24.96;30.19;95549.50;4996398;28;20683;-85
2023/07/20 10:56:44;;;;;;;1.45;1.30;;;;;;;25.22;28.42;95553.44;5003453;28;20183;-84
2023/07/20 10:59:39;;;;;;;1.30;1.20;;;;;;;25.54;29.17;95553.75;4967044;28;20187;-84
2023/07/20 11:06:17;;;;;;;2.15;1.30;;;;;;;26.00;27.25;95553.66;5002238;28;20584;-85
2023/07/20 11:20:37;;;;;;;2.83;1.63;;;;;;;25.55;26.68;95543.91;5004333;28;20258;-83
2023/07/20 11:23:02;;;;;;;1.38;1.20;;;;;;;25.78;25.73;95542.94;4980114;28;20689;-78
2023/07/20 11:25:36;;;;;;;2.97;1.30;;;;;;;25.30;25.86;95539.78;5012847;28;20211;-78
2023/07/20 11:28:02;;;;;;;1.55;1.13;;;;;;;25.86;26.54;95545.22;4996686;28;20593;-77
2023/07/20 11:30:32;;;;;;;2.78;1.20;;;;;;;25.82;26.81;95544.91;5009998;28;20187;-78
2023/07/20 11:32:58;;;;;;;1.70;1.60;;;;;;;25.28;25.75;95533.09;4996734;28;20195;-80
2023/07/20 11:35:23;;;;;;;4.00;1.27;;;;;;;25.74;26.84;95533.88;5003499;28;20186;-80
2023/07/20 11:37:49;;;;;;;2.38;1.20;;;;;;;26.05;25.93;95533.25;5014805;28;20187;-77
2023/07/20 11:40:14;;;;;;;1.45;1.20;;;;;;;25.98;26.43;95529.97;4997937;28;20592;-80
2023/07/20 11:42:40;;;;;;;5.22;1.33;;;;;;;25.88;27.00;95527.13;5009228;28;20232;-79
2023/07/20 11:45:06;;;;;;;1.38;1.23;;;;;;;26.11;27.07;95526.94;4995238;28;20562;-76
2023/07/20 11:47:32;;;;;;;3.75;1.20;;;;;;;26.03;27.01;95521.25;4996556;28;20179;-78
2023/07/20 11:50:03;;;;;;;1.40;1.30;;;;;;;26.63;26.84;95523.13;4991247;28;20219;-79
2023/07/20 11:52:28;;;;;;;2.33;1.50;;;;;;;26.70;25.60;95524.53;5005872;28;20207;-79
2023/07/20 11:54:54;;;;;;;2.90;1.25;;;;;;;26.81;25.37;95520.94;4997470;28;21005;-80
2023/07/20 11:57:20;;;;;;;2.70;1.50;;;;;;;26.23;26.45;95517.00;4997617;28;20196;-80
2023/07/20 11:59:58;;;;;;;1.67;1.55;;;;;;;26.79;24.62;95515.06;5004328;28;20218;-79
2023/07/20 12:02:25;;;;;;;2.72;1.45;;;;;;;26.39;27.14;95514.56;4972309;28;20217;-80
2023/07/20 12:04:52;;;;;;;2.33;1.38;;;;;;;26.43;27.49;95513.03;4989084;28;20183;-80
2023/07/20 12:07:18;;;;;;;2.63;1.25;;;;;;;26.42;27.30;95517.56;4993467;28;20184;-80
2023/07/20 12:09:44;;;;;;;3.35;1.42;;;;;;;26.24;27.09;95521.28;5013287;28;20187;-79
2023/07/20 12:12:13;;;;;;;2.65;1.48;;;;;;;25.88;27.62;95524.47;5018334;28;20234;-79